sensor_id;sensor_type;location;lat;lon;timestamp;P1;durP1;ratioP1;P2;durP2;ratioP2
14052;SDS011;7101;51.600;7.310;2023-04-08T00:02:24;69.88;;;25.98;;
14052;SDS011;7101;51.600;7.310;2023-04-08T00:04:59;69.80;;;29.15;;
14052;SDS011;7101;51.600;7.310;2023-04-08T00:07:27;34.72;;;21.88;;
14052;SDS011;7101;51.600;7.310;2023-04-08T00:09:57;41.55;;;21.25;;
14052;SDS011;7101;51.600;7.310;2023-04-08T00:12:24;27.88;;;13.35;;
14052;SDS011;7101;51.600;7.310;2023-04-08T00:14:53;24.75;;;16.13;;
14052;SDS011;7101;51.600;7.310;2023-04-08T00:19:51;30.10;;;14.73;;
14052;SDS011;7101;51.600;7.310;2023-04-08T00:22:22;54.10;;;19.67;;
14052;SDS011;7101;51.600;7.310;2023-04-08T00:24:50;31.77;;;14.70;;
14052;SDS011;7101;51.600;7.310;2023-04-08T00:27:18;21.02;;;13.30;;
14052;SDS011;7101;51.600;7.310;2023-04-08T00:29:47;54.35;;;16.67;;
14052;SDS011;7101;51.600;7.310;2023-04-08T00:32:16;54.80;;;16.42;;
14052;SDS011;7101;51.600;7.310;2023-04-08T00:34:52;30.95;;;14.70;;
14052;SDS011;7101;51.600;7.310;2023-04-08T00:37:28;51.70;;;18.40;;
14052;SDS011;7101;51.600;7.310;2023-04-08T00:39:56;34.85;;;16.42;;
14052;SDS011;7101;51.600;7.310;2023-04-08T00:42:23;121.90;;;25.92;;
14052;SDS011;7101;51.600;7.310;2023-04-08T00:44:51;38.83;;;13.65;;
14052;SDS011;7101;51.600;7.310;2023-04-08T00:47:18;30.08;;;13.23;;
14052;SDS011;7101;51.600;7.310;2023-04-08T00:49:45;40.20;;;12.88;;
14052;SDS011;7101;51.600;7.310;2023-04-08T00:52:13;39.05;;;13.85;;
14052;SDS011;7101;51.600;7.310;2023-04-08T00:54:44;89.80;;;17.90;;
14052;SDS011;7101;51.600;7.310;2023-04-08T00:57:11;29.80;;;15.88;;
14052;SDS011;7101;51.600;7.310;2023-04-08T00:59:38;45.63;;;17.00;;
14052;SDS011;7101;51.600;7.310;2023-04-08T01:02:08;58.08;;;16.73;;
14052;SDS011;7101;51.600;7.310;2023-04-08T01:04:43;116.75;;;23.33;;
14052;SDS011;7101;51.600;7.310;2023-04-08T01:07:20;79.40;;;20.77;;
14052;SDS011;7101;51.600;7.310;2023-04-08T01:09:53;66.45;;;19.98;;
14052;SDS011;7101;51.600;7.310;2023-04-08T01:12:24;62.92;;;20.63;;
14052;SDS011;7101;51.600;7.310;2023-04-08T01:14:56;59.63;;;20.35;;
14052;SDS011;7101;51.600;7.310;2023-04-08T01:17:46;39.33;;;18.67;;
14052;SDS011;7101;51.600;7.310;2023-04-08T01:20:17;65.03;;;20.08;;
14052;SDS011;7101;51.600;7.310;2023-04-08T01:22:50;44.90;;;20.27;;
14052;SDS011;7101;51.600;7.310;2023-04-08T01:25:30;32.45;;;16.50;;
14052;SDS011;7101;51.600;7.310;2023-04-08T01:28:02;36.30;;;17.58;;
14052;SDS011;7101;51.600;7.310;2023-04-08T01:30:34;87.38;;;22.77;;
14052;SDS011;7101;51.600;7.310;2023-04-08T01:33:04;84.35;;;21.20;;
14052;SDS011;7101;51.600;7.310;2023-04-08T01:39:08;58.72;;;18.05;;
14052;SDS011;7101;51.600;7.310;2023-04-08T01:41:38;70.97;;;20.23;;
14052;SDS011;7101;51.600;7.310;2023-04-08T01:44:07;70.93;;;20.27;;
14052;SDS011;7101;51.600;7.310;2023-04-08T01:46:35;48.30;;;17.98;;
14052;SDS011;7101;51.600;7.310;2023-04-08T01:49:06;63.75;;;19.60;;
14052;SDS011;7101;51.600;7.310;2023-04-08T01:51:33;52.75;;;18.83;;
14052;SDS011;7101;51.600;7.310;2023-04-08T01:54:03;60.90;;;19.92;;
14052;SDS011;7101;51.600;7.310;2023-04-08T01:56:32;45.78;;;16.17;;
14052;SDS011;7101;51.600;7.310;2023-04-08T01:59:05;103.07;;;24.08;;
14052;SDS011;7101;51.600;7.310;2023-04-08T02:01:38;100.85;;;22.92;;
14052;SDS011;7101;51.600;7.310;2023-04-08T02:04:07;74.47;;;19.50;;
14052;SDS011;7101;51.600;7.310;2023-04-08T02:06:34;58.53;;;18.70;;
14052;SDS011;7101;51.600;7.310;2023-04-08T02:09:04;47.05;;;18.65;;
14052;SDS011;7101;51.600;7.310;2023-04-08T02:11:32;64.07;;;20.40;;
14052;SDS011;7101;51.600;7.310;2023-04-08T02:13:58;78.38;;;23.05;;
14052;SDS011;7101;51.600;7.310;2023-04-08T02:16:28;79.25;;;23.27;;
14052;SDS011;7101;51.600;7.310;2023-04-08T02:19:06;96.75;;;24.10;;
14052;SDS011;7101;51.600;7.310;2023-04-08T02:21:40;36.05;;;18.23;;
14052;SDS011;7101;51.600;7.310;2023-04-08T02:24:11;33.17;;;16.27;;
14052;SDS011;7101;51.600;7.310;2023-04-08T02:26:41;61.40;;;20.77;;
14052;SDS011;7101;51.600;7.310;2023-04-08T02:29:11;30.63;;;16.77;;
14052;SDS011;7101;51.600;7.310;2023-04-08T02:31:43;30.55;;;16.60;;
14052;SDS011;7101;51.600;7.310;2023-04-08T02:34:10;43.88;;;18.58;;
14052;SDS011;7101;51.600;7.310;2023-04-08T02:36:40;38.42;;;17.73;;
14052;SDS011;7101;51.600;7.310;2023-04-08T02:39:13;36.83;;;17.33;;
14052;SDS011;7101;51.600;7.310;2023-04-08T02:41:40;26.30;;;15.98;;
14052;SDS011;7101;51.600;7.310;2023-04-08T02:44:10;53.70;;;18.70;;
14052;SDS011;7101;51.600;7.310;2023-04-08T02:46:38;105.20;;;25.40;;
14052;SDS011;7101;51.600;7.310;2023-04-08T02:49:07;54.08;;;21.90;;
14052;SDS011;7101;51.600;7.310;2023-04-08T02:51:34;59.05;;;21.60;;
14052;SDS011;7101;51.600;7.310;2023-04-08T02:54:01;52.42;;;20.92;;
14052;SDS011;7101;51.600;7.310;2023-04-08T02:56:28;51.75;;;21.55;;
14052;SDS011;7101;51.600;7.310;2023-04-08T02:58:57;41.40;;;19.25;;
14052;SDS011;7101;51.600;7.310;2023-04-08T03:01:24;44.70;;;21.00;;
14052;SDS011;7101;51.600;7.310;2023-04-08T03:03:52;67.65;;;23.23;;
14052;SDS011;7101;51.600;7.310;2023-04-08T03:06:21;55.80;;;22.15;;
14052;SDS011;7101;51.600;7.310;2023-04-08T03:08:48;86.90;;;23.50;;
14052;SDS011;7101;51.600;7.310;2023-04-08T03:11:15;70.05;;;22.88;;
14052;SDS011;7101;51.600;7.310;2023-04-08T03:13:44;30.02;;;17.10;;
14052;SDS011;7101;51.600;7.310;2023-04-08T03:16:12;34.78;;;18.73;;
14052;SDS011;7101;51.600;7.310;2023-04-08T03:18:39;24.88;;;17.17;;
14052;SDS011;7101;51.600;7.310;2023-04-08T03:21:09;38.20;;;19.63;;
14052;SDS011;7101;51.600;7.310;2023-04-08T03:23:39;90.22;;;23.48;;
14052;SDS011;7101;51.600;7.310;2023-04-08T03:26:13;66.95;;;19.33;;
14052;SDS011;7101;51.600;7.310;2023-04-08T03:28:40;23.33;;;14.20;;
14052;SDS011;7101;51.600;7.310;2023-04-08T03:31:07;34.72;;;15.18;;
14052;SDS011;7101;51.600;7.310;2023-04-08T03:33:34;53.17;;;17.00;;
14052;SDS011;7101;51.600;7.310;2023-04-08T03:36:00;19.50;;;13.35;;
14052;SDS011;7101;51.600;7.310;2023-04-08T03:38:27;15.30;;;11.93;;
14052;SDS011;7101;51.600;7.310;2023-04-08T03:40:56;16.90;;;12.00;;
14052;SDS011;7101;51.600;7.310;2023-04-08T03:43:24;21.38;;;11.52;;
14052;SDS011;7101;51.600;7.310;2023-04-08T03:45:51;57.67;;;13.30;;
14052;SDS011;7101;51.600;7.310;2023-04-08T03:48:19;66.45;;;13.57;;
14052;SDS011;7101;51.600;7.310;2023-04-08T03:50:45;57.25;;;13.48;;
14052;SDS011;7101;51.600;7.310;2023-04-08T03:53:12;69.18;;;14.88;;
14052;SDS011;7101;51.600;7.310;2023-04-08T03:55:39;49.83;;;13.93;;
14052;SDS011;7101;51.600;7.310;2023-04-08T03:58:08;53.42;;;12.93;;
14052;SDS011;7101;51.600;7.310;2023-04-08T04:00:35;43.40;;;13.15;;
14052;SDS011;7101;51.600;7.310;2023-04-08T04:03:02;49.25;;;14.07;;
14052;SDS011;7101;51.600;7.310;2023-04-08T04:05:28;56.75;;;15.13;;
14052;SDS011;7101;51.600;7.310;2023-04-08T04:07:57;90.32;;;17.17;;
14052;SDS011;7101;51.600;7.310;2023-04-08T04:10:24;120.18;;;18.58;;
14052;SDS011;7101;51.600;7.310;2023-04-08T04:12:51;84.22;;;15.32;;
14052;SDS011;7101;51.600;7.310;2023-04-08T04:15:19;76.78;;;14.93;;
14052;SDS011;7101;51.600;7.310;2023-04-08T04:17:47;115.50;;;18.52;;
14052;SDS011;7101;51.600;7.310;2023-04-08T04:20:16;34.30;;;12.65;;
14052;SDS011;7101;51.600;7.310;2023-04-08T04:22:45;52.55;;;14.45;;
14052;SDS011;7101;51.600;7.310;2023-04-08T04:25:12;76.85;;;16.08;;
14052;SDS011;7101;51.600;7.310;2023-04-08T04:27:40;91.47;;;16.65;;
14052;SDS011;7101;51.600;7.310;2023-04-08T04:30:10;82.15;;;15.25;;
14052;SDS011;7101;51.600;7.310;2023-04-08T04:32:42;42.13;;;12.35;;
14052;SDS011;7101;51.600;7.310;2023-04-08T04:35:09;83.25;;;16.80;;
14052;SDS011;7101;51.600;7.310;2023-04-08T04:37:37;116.85;;;19.85;;
14052;SDS011;7101;51.600;7.310;2023-04-08T04:40:08;57.60;;;14.63;;
14052;SDS011;7101;51.600;7.310;2023-04-08T04:42:36;54.40;;;13.68;;
14052;SDS011;7101;51.600;7.310;2023-04-08T04:45:03;52.53;;;15.75;;
14052;SDS011;7101;51.600;7.310;2023-04-08T04:47:30;41.28;;;14.07;;
14052;SDS011;7101;51.600;7.310;2023-04-08T04:49:59;22.40;;;12.48;;
14052;SDS011;7101;51.600;7.310;2023-04-08T04:52:26;46.17;;;15.10;;
14052;SDS011;7101;51.600;7.310;2023-04-08T04:54:55;23.25;;;12.13;;
14052;SDS011;7101;51.600;7.310;2023-04-08T04:57:25;27.13;;;12.35;;
14052;SDS011;7101;51.600;7.310;2023-04-08T04:59:55;22.02;;;13.65;;
14052;SDS011;7101;51.600;7.310;2023-04-08T05:02:23;22.77;;;12.98;;
14052;SDS011;7101;51.600;7.310;2023-04-08T05:04:50;31.13;;;13.77;;
14052;SDS011;7101;51.600;7.310;2023-04-08T05:07:22;18.00;;;12.30;;
14052;SDS011;7101;51.600;7.310;2023-04-08T05:09:48;21.35;;;12.15;;
14052;SDS011;7101;51.600;7.310;2023-04-08T05:12:18;17.55;;;12.40;;
14052;SDS011;7101;51.600;7.310;2023-04-08T05:14:47;14.88;;;11.98;;
14052;SDS011;7101;51.600;7.310;2023-04-08T05:17:15;14.75;;;11.10;;
14052;SDS011;7101;51.600;7.310;2023-04-08T05:19:42;13.02;;;10.70;;
14052;SDS011;7101;51.600;7.310;2023-04-08T05:22:13;13.75;;;10.68;;
14052;SDS011;7101;51.600;7.310;2023-04-08T05:24:45;13.27;;;11.00;;
14052;SDS011;7101;51.600;7.310;2023-04-08T05:27:14;15.10;;;11.15;;
14052;SDS011;7101;51.600;7.310;2023-04-08T05:29:46;15.45;;;11.32;;
14052;SDS011;7101;51.600;7.310;2023-04-08T05:32:15;11.73;;;10.13;;
14052;SDS011;7101;51.600;7.310;2023-04-08T05:34:42;12.48;;;10.25;;
14052;SDS011;7101;51.600;7.310;2023-04-08T05:37:13;15.95;;;10.43;;
14052;SDS011;7101;51.600;7.310;2023-04-08T05:39:41;11.52;;;10.13;;
14052;SDS011;7101;51.600;7.310;2023-04-08T05:42:12;10.68;;;9.57;;
14052;SDS011;7101;51.600;7.310;2023-04-08T05:44:39;11.30;;;9.82;;
14052;SDS011;7101;51.600;7.310;2023-04-08T05:47:10;11.48;;;9.90;;
14052;SDS011;7101;51.600;7.310;2023-04-08T05:49:46;11.68;;;9.48;;
14052;SDS011;7101;51.600;7.310;2023-04-08T05:52:13;9.75;;;8.63;;
14052;SDS011;7101;51.600;7.310;2023-04-08T05:54:42;10.20;;;9.10;;
14052;SDS011;7101;51.600;7.310;2023-04-08T05:57:14;10.57;;;9.48;;
14052;SDS011;7101;51.600;7.310;2023-04-08T05:59:41;10.57;;;8.95;;
14052;SDS011;7101;51.600;7.310;2023-04-08T06:02:35;10.77;;;9.60;;
14052;SDS011;7101;51.600;7.310;2023-04-08T06:05:06;9.73;;;8.73;;
14052;SDS011;7101;51.600;7.310;2023-04-08T06:07:35;10.68;;;9.68;;
14052;SDS011;7101;51.600;7.310;2023-04-08T06:10:02;10.38;;;9.27;;
14052;SDS011;7101;51.600;7.310;2023-04-08T06:12:35;10.38;;;9.27;;
14052;SDS011;7101;51.600;7.310;2023-04-08T06:15:05;10.70;;;9.65;;
14052;SDS011;7101;51.600;7.310;2023-04-08T06:17:34;12.40;;;10.48;;
14052;SDS011;7101;51.600;7.310;2023-04-08T06:20:01;10.50;;;9.35;;
14052;SDS011;7101;51.600;7.310;2023-04-08T06:22:31;9.85;;;8.85;;
14052;SDS011;7101;51.600;7.310;2023-04-08T06:24:58;10.48;;;9.18;;
14052;SDS011;7101;51.600;7.310;2023-04-08T06:27:26;11.23;;;10.10;;
14052;SDS011;7101;51.600;7.310;2023-04-08T06:29:56;10.45;;;9.30;;
14052;SDS011;7101;51.600;7.310;2023-04-08T06:32:23;11.23;;;10.13;;
14052;SDS011;7101;51.600;7.310;2023-04-08T06:34:51;10.82;;;9.73;;
14052;SDS011;7101;51.600;7.310;2023-04-08T06:37:20;10.82;;;9.73;;
14052;SDS011;7101;51.600;7.310;2023-04-08T06:39:48;12.13;;;10.70;;
14052;SDS011;7101;51.600;7.310;2023-04-08T06:42:15;13.25;;;11.02;;
14052;SDS011;7101;51.600;7.310;2023-04-08T06:44:43;14.05;;;11.45;;
14052;SDS011;7101;51.600;7.310;2023-04-08T06:47:11;12.32;;;10.73;;
14052;SDS011;7101;51.600;7.310;2023-04-08T06:49:41;14.93;;;11.55;;
14052;SDS011;7101;51.600;7.310;2023-04-08T06:52:11;15.55;;;12.30;;
14052;SDS011;7101;51.600;7.310;2023-04-08T06:54:49;14.40;;;12.85;;
14052;SDS011;7101;51.600;7.310;2023-04-08T06:57:16;14.18;;;12.65;;
14052;SDS011;7101;51.600;7.310;2023-04-08T06:59:43;14.27;;;12.13;;
14052;SDS011;7101;51.600;7.310;2023-04-08T07:02:12;15.50;;;11.73;;
14052;SDS011;7101;51.600;7.310;2023-04-08T07:07:14;13.18;;;10.93;;
14052;SDS011;7101;51.600;7.310;2023-04-08T07:09:42;11.48;;;10.10;;
14052;SDS011;7101;51.600;7.310;2023-04-08T07:12:15;13.07;;;10.48;;
14052;SDS011;7101;51.600;7.310;2023-04-08T07:14:42;11.50;;;9.30;;
14052;SDS011;7101;51.600;7.310;2023-04-08T07:17:16;11.88;;;9.05;;
14052;SDS011;7101;51.600;7.310;2023-04-08T07:19:44;9.90;;;8.00;;
14052;SDS011;7101;51.600;7.310;2023-04-08T07:22:11;10.85;;;7.95;;
14052;SDS011;7101;51.600;7.310;2023-04-08T07:24:39;10.82;;;8.13;;
14052;SDS011;7101;51.600;7.310;2023-04-08T07:27:14;9.88;;;8.30;;
14052;SDS011;7101;51.600;7.310;2023-04-08T07:29:44;9.50;;;7.55;;
14052;SDS011;7101;51.600;7.310;2023-04-08T07:32:13;8.25;;;7.40;;
14052;SDS011;7101;51.600;7.310;2023-04-08T07:34:40;7.90;;;7.10;;
14052;SDS011;7101;51.600;7.310;2023-04-08T07:37:09;7.30;;;6.53;;
14052;SDS011;7101;51.600;7.310;2023-04-08T07:39:41;9.70;;;6.78;;
14052;SDS011;7101;51.600;7.310;2023-04-08T07:42:08;7.93;;;6.90;;
14052;SDS011;7101;51.600;7.310;2023-04-08T07:44:36;14.48;;;7.85;;
14052;SDS011;7101;51.600;7.310;2023-04-08T07:47:08;7.68;;;6.95;;
14052;SDS011;7101;51.600;7.310;2023-04-08T07:49:37;8.45;;;6.78;;
14052;SDS011;7101;51.600;7.310;2023-04-08T07:52:04;8.57;;;7.10;;
14052;SDS011;7101;51.600;7.310;2023-04-08T07:54:33;7.65;;;6.85;;
14052;SDS011;7101;51.600;7.310;2023-04-08T07:57:01;8.55;;;6.47;;
14052;SDS011;7101;51.600;7.310;2023-04-08T07:59:29;9.60;;;6.57;;
14052;SDS011;7101;51.600;7.310;2023-04-08T08:01:57;10.13;;;6.45;;
14052;SDS011;7101;51.600;7.310;2023-04-08T08:04:25;9.23;;;7.10;;
14052;SDS011;7101;51.600;7.310;2023-04-08T08:06:59;8.32;;;6.90;;
14052;SDS011;7101;51.600;7.310;2023-04-08T08:09:26;7.85;;;6.95;;
14052;SDS011;7101;51.600;7.310;2023-04-08T08:11:55;7.70;;;6.97;;
14052;SDS011;7101;51.600;7.310;2023-04-08T08:14:22;8.93;;;7.63;;
14052;SDS011;7101;51.600;7.310;2023-04-08T08:16:50;8.85;;;7.47;;
14052;SDS011;7101;51.600;7.310;2023-04-08T08:19:18;10.50;;;7.80;;
14052;SDS011;7101;51.600;7.310;2023-04-08T08:21:46;9.10;;;7.57;;
14052;SDS011;7101;51.600;7.310;2023-04-08T08:24:17;8.98;;;7.32;;
14052;SDS011;7101;51.600;7.310;2023-04-08T08:26:44;10.60;;;7.80;;
14052;SDS011;7101;51.600;7.310;2023-04-08T08:29:13;8.77;;;7.25;;
14052;SDS011;7101;51.600;7.310;2023-04-08T08:31:40;10.25;;;7.90;;
14052;SDS011;7101;51.600;7.310;2023-04-08T08:34:09;12.73;;;8.00;;
14052;SDS011;7101;51.600;7.310;2023-04-08T08:36:37;9.52;;;7.80;;
14052;SDS011;7101;51.600;7.310;2023-04-08T08:39:05;8.43;;;7.53;;
14052;SDS011;7101;51.600;7.310;2023-04-08T08:41:35;11.30;;;7.30;;
14052;SDS011;7101;51.600;7.310;2023-04-08T08:44:04;10.50;;;7.88;;
14052;SDS011;7101;51.600;7.310;2023-04-08T08:46:34;9.90;;;7.70;;
14052;SDS011;7101;51.600;7.310;2023-04-08T08:49:03;9.50;;;7.97;;
14052;SDS011;7101;51.600;7.310;2023-04-08T08:51:31;9.25;;;7.97;;
14052;SDS011;7101;51.600;7.310;2023-04-08T08:54:00;9.00;;;8.10;;
14052;SDS011;7101;51.600;7.310;2023-04-08T08:56:31;9.43;;;8.05;;
14052;SDS011;7101;51.600;7.310;2023-04-08T08:59:00;10.02;;;8.02;;
14052;SDS011;7101;51.600;7.310;2023-04-08T09:01:32;11.23;;;8.45;;
14052;SDS011;7101;51.600;7.310;2023-04-08T09:04:09;10.48;;;8.52;;
14052;SDS011;7101;51.600;7.310;2023-04-08T09:06:41;11.02;;;8.73;;
14052;SDS011;7101;51.600;7.310;2023-04-08T09:09:09;9.18;;;8.27;;
14052;SDS011;7101;51.600;7.310;2023-04-08T09:11:36;8.55;;;7.63;;
14052;SDS011;7101;51.600;7.310;2023-04-08T09:14:05;9.30;;;7.65;;
14052;SDS011;7101;51.600;7.310;2023-04-08T09:16:50;10.18;;;8.00;;
14052;SDS011;7101;51.600;7.310;2023-04-08T09:19:21;10.27;;;8.40;;
14052;SDS011;7101;51.600;7.310;2023-04-08T09:22:03;10.55;;;8.00;;
14052;SDS011;7101;51.600;7.310;2023-04-08T09:24:33;10.65;;;7.80;;
14052;SDS011;7101;51.600;7.310;2023-04-08T09:27:02;9.85;;;7.57;;
14052;SDS011;7101;51.600;7.310;2023-04-08T09:29:33;10.23;;;8.38;;
14052;SDS011;7101;51.600;7.310;2023-04-08T09:32:01;10.30;;;7.90;;
14052;SDS011;7101;51.600;7.310;2023-04-08T09:34:30;8.63;;;7.72;;
14052;SDS011;7101;51.600;7.310;2023-04-08T09:36:58;8.93;;;8.02;;
14052;SDS011;7101;51.600;7.310;2023-04-08T09:39:26;10.73;;;8.05;;
14052;SDS011;7101;51.600;7.310;2023-04-08T09:41:57;9.57;;;7.75;;
14052;SDS011;7101;51.600;7.310;2023-04-08T09:44:30;9.20;;;7.93;;
14052;SDS011;7101;51.600;7.310;2023-04-08T09:47:04;8.35;;;7.25;;
14052;SDS011;7101;51.600;7.310;2023-04-08T09:49:36;8.82;;;7.80;;
14052;SDS011;7101;51.600;7.310;2023-04-08T09:52:14;8.27;;;7.35;;
14052;SDS011;7101;51.600;7.310;2023-04-08T09:54:46;7.75;;;6.80;;
14052;SDS011;7101;51.600;7.310;2023-04-08T09:57:21;7.15;;;6.07;;
14052;SDS011;7101;51.600;7.310;2023-04-08T09:59:57;8.15;;;7.00;;
14052;SDS011;7101;51.600;7.310;2023-04-08T10:02:29;7.57;;;6.53;;
14052;SDS011;7101;51.600;7.310;2023-04-08T10:05:05;8.20;;;6.53;;
14052;SDS011;7101;51.600;7.310;2023-04-08T10:07:35;7.82;;;6.55;;
14052;SDS011;7101;51.600;7.310;2023-04-08T10:10:07;6.47;;;5.88;;
14052;SDS011;7101;51.600;7.310;2023-04-08T10:12:35;6.95;;;6.25;;
14052;SDS011;7101;51.600;7.310;2023-04-08T10:18:28;6.72;;;6.03;;
14052;SDS011;7101;51.600;7.310;2023-04-08T10:20:58;7.35;;;6.40;;
14052;SDS011;7101;51.600;7.310;2023-04-08T10:26:36;7.68;;;6.63;;
14052;SDS011;7101;51.600;7.310;2023-04-08T10:35:05;6.82;;;6.07;;
14052;SDS011;7101;51.600;7.310;2023-04-08T10:37:35;7.65;;;6.00;;
14052;SDS011;7101;51.600;7.310;2023-04-08T10:40:05;7.43;;;6.03;;
14052;SDS011;7101;51.600;7.310;2023-04-08T10:42:32;7.13;;;6.35;;
14052;SDS011;7101;51.600;7.310;2023-04-08T10:45:01;6.88;;;5.85;;
14052;SDS011;7101;51.600;7.310;2023-04-08T10:47:31;6.13;;;5.53;;
14052;SDS011;7101;51.600;7.310;2023-04-08T10:49:58;6.55;;;5.85;;
14052;SDS011;7101;51.600;7.310;2023-04-08T10:52:25;6.28;;;5.68;;
14052;SDS011;7101;51.600;7.310;2023-04-08T10:54:52;6.10;;;5.50;;
14052;SDS011;7101;51.600;7.310;2023-04-08T10:57:22;9.88;;;6.50;;
14052;SDS011;7101;51.600;7.310;2023-04-08T10:59:52;8.77;;;5.97;;
14052;SDS011;7101;51.600;7.310;2023-04-08T11:02:28;7.50;;;6.03;;
14052;SDS011;7101;51.600;7.310;2023-04-08T11:04:59;6.97;;;5.80;;
14052;SDS011;7101;51.600;7.310;2023-04-08T11:07:26;7.78;;;6.30;;
14052;SDS011;7101;51.600;7.310;2023-04-08T11:09:55;6.95;;;6.10;;
14052;SDS011;7101;51.600;7.310;2023-04-08T11:12:30;8.18;;;6.53;;
14052;SDS011;7101;51.600;7.310;2023-04-08T11:15:00;7.15;;;6.10;;
14052;SDS011;7101;51.600;7.310;2023-04-08T11:17:35;6.70;;;6.00;;
14052;SDS011;7101;51.600;7.310;2023-04-08T11:20:02;7.85;;;6.28;;
14052;SDS011;7101;51.600;7.310;2023-04-08T11:22:30;8.38;;;6.57;;
14052;SDS011;7101;51.600;7.310;2023-04-08T11:24:58;6.60;;;5.90;;
14052;SDS011;7101;51.600;7.310;2023-04-08T11:27:29;6.47;;;5.88;;
14052;SDS011;7101;51.600;7.310;2023-04-08T11:29:57;7.25;;;6.30;;
14052;SDS011;7101;51.600;7.310;2023-04-08T11:32:25;6.90;;;6.30;;
14052;SDS011;7101;51.600;7.310;2023-04-08T11:34:54;7.57;;;6.68;;
14052;SDS011;7101;51.600;7.310;2023-04-08T11:37:24;8.60;;;6.78;;
14052;SDS011;7101;51.600;7.310;2023-04-08T11:39:51;8.70;;;7.07;;
14052;SDS011;7101;51.600;7.310;2023-04-08T11:42:27;8.27;;;6.65;;
14052;SDS011;7101;51.600;7.310;2023-04-08T11:44:55;9.57;;;6.45;;
14052;SDS011;7101;51.600;7.310;2023-04-08T11:47:29;7.75;;;6.70;;
14052;SDS011;7101;51.600;7.310;2023-04-08T11:49:58;7.38;;;6.35;;
14052;SDS011;7101;51.600;7.310;2023-04-08T11:52:41;7.90;;;6.70;;
14052;SDS011;7101;51.600;7.310;2023-04-08T11:55:09;7.47;;;6.72;;
14052;SDS011;7101;51.600;7.310;2023-04-08T11:57:37;7.72;;;6.47;;
14052;SDS011;7101;51.600;7.310;2023-04-08T12:00:05;8.57;;;6.95;;
14052;SDS011;7101;51.600;7.310;2023-04-08T12:02:34;13.57;;;8.15;;
14052;SDS011;7101;51.600;7.310;2023-04-08T12:05:04;7.88;;;6.63;;
14052;SDS011;7101;51.600;7.310;2023-04-08T12:07:32;7.38;;;6.50;;
14052;SDS011;7101;51.600;7.310;2023-04-08T12:09:59;7.40;;;6.60;;
14052;SDS011;7101;51.600;7.310;2023-04-08T12:12:30;8.85;;;7.38;;
14052;SDS011;7101;51.600;7.310;2023-04-08T12:15:00;10.63;;;7.60;;
14052;SDS011;7101;51.600;7.310;2023-04-08T12:17:28;8.38;;;6.70;;
14052;SDS011;7101;51.600;7.310;2023-04-08T12:19:58;10.57;;;6.85;;
14052;SDS011;7101;51.600;7.310;2023-04-08T12:22:27;6.72;;;6.13;;
14052;SDS011;7101;51.600;7.310;2023-04-08T12:24:55;9.32;;;6.78;;
14052;SDS011;7101;51.600;7.310;2023-04-08T12:27:23;10.98;;;6.82;;
14052;SDS011;7101;51.600;7.310;2023-04-08T12:29:51;7.85;;;6.97;;
14052;SDS011;7101;51.600;7.310;2023-04-08T12:32:19;7.88;;;7.07;;
14052;SDS011;7101;51.600;7.310;2023-04-08T12:34:47;13.38;;;8.07;;
14052;SDS011;7101;51.600;7.310;2023-04-08T12:37:17;10.07;;;7.00;;
14052;SDS011;7101;51.600;7.310;2023-04-08T12:39:48;8.80;;;6.70;;
14052;SDS011;7101;51.600;7.310;2023-04-08T12:42:16;7.78;;;6.90;;
14052;SDS011;7101;51.600;7.310;2023-04-08T12:44:52;8.50;;;7.70;;
14052;SDS011;7101;51.600;7.310;2023-04-08T12:47:20;8.25;;;6.80;;
14052;SDS011;7101;51.600;7.310;2023-04-08T12:49:54;11.27;;;7.50;;
14052;SDS011;7101;51.600;7.310;2023-04-08T12:52:40;8.43;;;7.40;;
14052;SDS011;7101;51.600;7.310;2023-04-08T12:55:11;9.90;;;7.90;;
14052;SDS011;7101;51.600;7.310;2023-04-08T12:57:39;8.88;;;7.50;;
14052;SDS011;7101;51.600;7.310;2023-04-08T13:00:10;9.52;;;7.20;;
14052;SDS011;7101;51.600;7.310;2023-04-08T13:02:39;8.43;;;7.50;;
14052;SDS011;7101;51.600;7.310;2023-04-08T13:05:07;9.20;;;8.30;;
14052;SDS011;7101;51.600;7.310;2023-04-08T13:07:34;8.55;;;7.10;;
14052;SDS011;7101;51.600;7.310;2023-04-08T13:10:06;8.48;;;7.57;;
14052;SDS011;7101;51.600;7.310;2023-04-08T13:12:37;10.02;;;7.68;;
14052;SDS011;7101;51.600;7.310;2023-04-08T13:15:09;8.70;;;7.80;;
14052;SDS011;7101;51.600;7.310;2023-04-08T13:17:38;8.52;;;7.72;;
14052;SDS011;7101;51.600;7.310;2023-04-08T13:20:06;8.48;;;7.68;;
14052;SDS011;7101;51.600;7.310;2023-04-08T13:22:36;9.02;;;8.13;;
14052;SDS011;7101;51.600;7.310;2023-04-08T13:25:05;8.15;;;7.35;;
14052;SDS011;7101;51.600;7.310;2023-04-08T13:27:35;8.68;;;7.88;;
14052;SDS011;7101;51.600;7.310;2023-04-08T13:30:04;9.35;;;8.30;;
14052;SDS011;7101;51.600;7.310;2023-04-08T13:32:33;9.40;;;8.40;;
14052;SDS011;7101;51.600;7.310;2023-04-08T13:35:03;9.52;;;8.27;;
14052;SDS011;7101;51.600;7.310;2023-04-08T13:37:31;9.82;;;8.35;;
14052;SDS011;7101;51.600;7.310;2023-04-08T13:39:59;9.07;;;8.18;;
14052;SDS011;7101;51.600;7.310;2023-04-08T13:42:27;9.10;;;8.20;;
14052;SDS011;7101;51.600;7.310;2023-04-08T13:44:56;10.18;;;8.52;;
14052;SDS011;7101;51.600;7.310;2023-04-08T13:47:29;9.70;;;8.70;;
14052;SDS011;7101;51.600;7.310;2023-04-08T13:49:56;9.32;;;8.07;;
14052;SDS011;7101;51.600;7.310;2023-04-08T13:52:23;9.10;;;8.20;;
14052;SDS011;7101;51.600;7.310;2023-04-08T13:54:51;9.68;;;8.68;;
14052;SDS011;7101;51.600;7.310;2023-04-08T13:57:18;9.45;;;8.32;;
14052;SDS011;7101;51.600;7.310;2023-04-08T13:59:45;11.45;;;9.02;;
14052;SDS011;7101;51.600;7.310;2023-04-08T14:02:14;9.80;;;8.65;;
14052;SDS011;7101;51.600;7.310;2023-04-08T14:04:43;10.48;;;9.35;;
14052;SDS011;7101;51.600;7.310;2023-04-08T14:07:13;12.00;;;9.43;;
14052;SDS011;7101;51.600;7.310;2023-04-08T14:09:40;11.32;;;10.07;;
14052;SDS011;7101;51.600;7.310;2023-04-08T14:12:07;10.73;;;9.57;;
14052;SDS011;7101;51.600;7.310;2023-04-08T14:14:35;10.88;;;9.73;;
14052;SDS011;7101;51.600;7.310;2023-04-08T14:17:03;10.73;;;9.63;;
14052;SDS011;7101;51.600;7.310;2023-04-08T14:19:32;11.40;;;10.10;;
14052;SDS011;7101;51.600;7.310;2023-04-08T14:22:01;10.93;;;9.80;;
14052;SDS011;7101;51.600;7.310;2023-04-08T14:24:33;10.82;;;9.23;;
14052;SDS011;7101;51.600;7.310;2023-04-08T14:27:05;12.20;;;10.20;;
14052;SDS011;7101;51.600;7.310;2023-04-08T14:29:32;12.55;;;9.65;;
14052;SDS011;7101;51.600;7.310;2023-04-08T14:32:08;11.40;;;9.40;;
14052;SDS011;7101;51.600;7.310;2023-04-08T14:34:37;13.13;;;10.25;;
14052;SDS011;7101;51.600;7.310;2023-04-08T14:37:05;13.20;;;10.25;;
14052;SDS011;7101;51.600;7.310;2023-04-08T14:39:33;12.40;;;9.98;;
14052;SDS011;7101;51.600;7.310;2023-04-08T14:42:00;10.93;;;9.75;;
14052;SDS011;7101;51.600;7.310;2023-04-08T14:44:28;10.75;;;9.60;;
14052;SDS011;7101;51.600;7.310;2023-04-08T14:46:59;9.93;;;8.90;;
14052;SDS011;7101;51.600;7.310;2023-04-08T14:49:29;10.73;;;9.63;;
14052;SDS011;7101;51.600;7.310;2023-04-08T14:51:58;10.55;;;9.18;;
14052;SDS011;7101;51.600;7.310;2023-04-08T14:54:25;9.68;;;8.68;;
14052;SDS011;7101;51.600;7.310;2023-04-08T14:56:52;9.77;;;8.77;;
14052;SDS011;7101;51.600;7.310;2023-04-08T14:59:20;12.13;;;8.98;;
14052;SDS011;7101;51.600;7.310;2023-04-08T15:01:48;8.90;;;7.93;;
14052;SDS011;7101;51.600;7.310;2023-04-08T15:04:17;10.90;;;9.80;;
14052;SDS011;7101;51.600;7.310;2023-04-08T15:06:45;10.05;;;8.82;;
14052;SDS011;7101;51.600;7.310;2023-04-08T15:09:20;9.73;;;8.55;;
14052;SDS011;7101;51.600;7.310;2023-04-08T15:14:34;9.07;;;8.18;;
14052;SDS011;7101;51.600;7.310;2023-04-08T15:17:04;9.95;;;8.95;;
14052;SDS011;7101;51.600;7.310;2023-04-08T15:19:31;9.60;;;8.57;;
14052;SDS011;7101;51.600;7.310;2023-04-08T15:21:57;9.82;;;8.80;;
14052;SDS011;7101;51.600;7.310;2023-04-08T15:24:27;10.13;;;9.13;;
14052;SDS011;7101;51.600;7.310;2023-04-08T15:27:01;10.52;;;9.43;;